Time;durP1;ratioP1;P1;durP2;ratioP2;P2;SDS_P1;SDS_P2;PMS_P1;PMS_P2;Temp;Humidity;BMP_temperature;BMP_pressure;BME280_temperature;BME280_humidity;BME280_pressure;Samples;Min_cycle;Max_cycle;Signal;HPM_P1;HPM_P2
2023/11/18 00:00:58;;;;;;;19.85;13.40;;;;;9.00;99357.00;;;;4935070;29;20048;-63
2023/11/18 00:03:25;;;;;;;19.35;14.30;;;;;9.00;99359.00;;;;4934375;29;20043;-64
2023/11/18 00:05:51;;;;;;;20.70;13.45;;;;;9.00;99369.00;;;;4933650;29;20047;-63
2023/11/18 00:08:18;;;;;;;20.70;13.98;;;;;9.00;99351.00;;;;4933584;29;20057;-63
2023/11/18 00:10:45;;;;;;;18.92;14.23;;;;;9.00;99355.00;;;;4934908;29;20126;-63
2023/11/18 00:13:11;;;;;;;20.25;13.63;;;;;9.00;99359.00;;;;4934751;29;20043;-64
2023/11/18 00:15:38;;;;;;;19.58;14.32;;;;;9.10;99346.00;;;;4932958;29;20103;-63
2023/11/18 00:18:05;;;;;;;17.02;12.32;;;;;9.10;99351.00;;;;4934829;29;20408;-63
2023/11/18 00:20:31;;;;;;;16.70;13.32;;;;;9.10;99344.00;;;;4933398;29;20051;-64
2023/11/18 00:22:58;;;;;;;17.33;12.55;;;;;9.10;99350.00;;;;4933518;29;20119;-63
2023/11/18 00:25:25;;;;;;;19.35;13.13;;;;;9.20;99342.00;;;;4933387;29;20044;-63
2023/11/18 00:27:51;;;;;;;17.42;12.95;;;;;9.20;99338.00;;;;4933751;29;20058;-63
2023/11/18 00:30:18;;;;;;;18.85;13.88;;;;;9.30;99340.00;;;;4934755;29;20044;-63
2023/11/18 00:32:45;;;;;;;15.52;11.48;;;;;9.30;99329.00;;;;4933689;29;20099;-63
2023/11/18 00:35:12;;;;;;;17.95;13.23;;;;;9.30;99333.00;;;;4932677;29;20047;-64
2023/11/18 00:37:38;;;;;;;19.27;13.57;;;;;9.20;99321.00;;;;4934971;29;20048;-63
2023/11/18 00:40:07;;;;;;;21.35;12.07;;;;;9.30;99331.00;;;;4934646;29;20048;-63
2023/11/18 00:42:34;;;;;;;16.13;12.05;;;;;9.30;99341.00;;;;4933623;29;20445;-64
2023/11/18 00:45:00;;;;;;;15.63;10.85;;;;;9.30;99333.00;;;;4932594;29;20083;-63
2023/11/18 00:47:28;;;;;;;15.65;11.38;;;;;9.30;99347.00;;;;4934552;29;20095;-63
2023/11/18 00:49:55;;;;;;;15.75;11.20;;;;;9.40;99343.00;;;;4917629;29;20051;-64
2023/11/18 00:52:22;;;;;;;15.13;11.27;;;;;9.40;99348.00;;;;4933239;29;20087;-63
2023/11/18 00:54:48;;;;;;;14.30;11.48;;;;;9.40;99354.00;;;;4933814;29;20099;-65
2023/11/18 00:57:15;;;;;;;14.80;10.57;;;;;9.40;99346.00;;;;4934437;29;20047;-64
2023/11/18 00:59:43;;;;;;;14.35;11.50;;;;;9.30;99362.00;;;;4933088;29;20462;-63
2023/11/18 01:02:10;;;;;;;14.18;11.15;;;;;9.30;99347.00;;;;4933177;29;20482;-63
2023/11/18 01:04:36;;;;;;;14.98;10.30;;;;;9.30;99353.00;;;;4933715;29;20467;-64
2023/11/18 01:07:03;;;;;;;13.07;10.27;;;;;9.30;99364.00;;;;4933006;29;20075;-63
2023/11/18 01:09:36;;;;;;;13.93;9.68;;;;;9.30;99355.00;;;;4933111;29;20047;-63
2023/11/18 01:12:03;;;;;;;15.98;10.20;;;;;9.30;99351.00;;;;4933278;29;20055;-63
2023/11/18 01:14:38;;;;;;;14.10;10.13;;;;;9.40;99342.00;;;;4932287;29;20044;-63
2023/11/18 01:17:05;;;;;;;12.35;10.45;;;;;9.40;99342.00;;;;4934241;29;20135;-65
2023/11/18 01:19:33;;;;;;;15.07;10.82;;;;;9.30;99336.00;;;;4934307;29;20047;-63
2023/11/18 01:22:00;;;;;;;16.75;10.00;;;;;9.40;99340.00;;;;4934267;29;20103;-63
2023/11/18 01:24:27;;;;;;;15.93;10.90;;;;;9.40;99336.00;;;;4932420;29;20090;-62
2023/11/18 01:26:53;;;;;;;13.82;9.88;;;;;9.40;99338.00;;;;4933291;29;20476;-64
2023/11/18 01:29:22;;;;;;;14.23;10.80;;;;;9.40;99330.00;;;;4917243;29;20568;-63
2023/11/18 01:31:48;;;;;;;16.35;9.93;;;;;9.30;99332.00;;;;4936293;29;20044;-63
2023/11/18 01:34:21;;;;;;;16.05;10.27;;;;;9.30;99341.00;;;;4935650;29;20099;-62
2023/11/18 01:36:49;;;;;;;13.60;9.70;;;;;9.30;99342.00;;;;4937980;29;20052;-62
2023/11/18 01:39:17;;;;;;;14.32;10.85;;;;;9.30;99338.00;;;;4937929;29;20040;-63
2023/11/18 01:41:45;;;;;;;14.75;10.55;;;;;9.30;99344.00;;;;4936345;29;20087;-62
2023/11/18 01:44:14;;;;;;;14.80;11.00;;;;;9.30;99349.00;;;;4936797;29;20095;-64
2023/11/18 01:46:44;;;;;;;14.27;10.18;;;;;9.30;99351.00;;;;4936513;29;20110;-62
2023/11/18 01:49:13;;;;;;;19.35;10.68;;;;;9.30;99349.00;;;;4937935;29;20054;-64
2023/11/18 01:51:43;;;;;;;13.73;10.48;;;;;9.30;99343.00;;;;4937383;29;20131;-62
2023/11/18 01:54:15;;;;;;;13.68;10.10;;;;;9.30;99350.00;;;;4935454;29;20047;-64
2023/11/18 01:56:45;;;;;;;21.60;11.32;;;;;9.30;99360.00;;;;4937181;29;20055;-63
2023/11/18 01:59:18;;;;;;;14.55;10.70;;;;;9.30;99351.00;;;;4936275;29;20107;-64
2023/11/18 02:01:48;;;;;;;13.55;10.68;;;;;9.30;99355.00;;;;4920559;29;20051;-63
2023/11/18 02:04:15;;;;;;;14.40;10.82;;;;;9.30;99352.00;;;;4935167;29;20051;-63
2023/11/18 02:06:44;;;;;;;14.20;10.85;;;;;9.20;99357.00;;;;4935476;29;20067;-64
2023/11/18 02:09:18;;;;;;;13.88;9.93;;;;;9.20;99352.00;;;;4936936;29;20135;-63
2023/11/18 02:12:00;;;;;;;11.65;9.68;;;;;9.20;99354.00;;;;4935747;29;20138;-63
2023/11/18 02:14:29;;;;;;;14.80;8.80;;;;;9.20;99357.00;;;;4934910;29;20051;-63
2023/11/18 02:17:02;;;;;;;13.02;8.65;;;;;9.20;99351.00;;;;4919939;29;20088;-63
2023/11/18 02:19:30;;;;;;;11.75;8.50;;;;;9.10;99352.00;;;;4935570;29;20056;-63
2023/11/18 02:21:57;;;;;;;10.70;8.20;;;;;9.10;99345.00;;;;4935443;29;20047;-63
2023/11/18 02:24:36;;;;;;;10.10;7.88;;;;;9.00;99352.00;;;;4936213;29;20050;-63
2023/11/18 02:27:05;;;;;;;9.90;7.95;;;;;9.00;99358.00;;;;4935508;29;20146;-63
2023/11/18 02:29:36;;;;;;;9.40;7.40;;;;;8.90;99355.00;;;;4935393;29;20047;-63
2023/11/18 02:32:08;;;;;;;8.25;6.65;;;;;8.90;99365.00;;;;4935273;29;20123;-63
2023/11/18 02:34:38;;;;;;;11.75;7.18;;;;;8.90;99360.00;;;;4934696;29;20082;-63
2023/11/18 02:37:06;;;;;;;10.10;7.57;;;;;8.90;99363.00;;;;4935220;29;20056;-63
2023/11/18 02:39:40;;;;;;;9.90;7.22;;;;;8.90;99340.00;;;;4935170;29;20087;-65
2023/11/18 02:42:08;;;;;;;11.27;7.93;;;;;9.00;99341.00;;;;4935246;29;20071;-66
2023/11/18 02:44:36;;;;;;;9.88;7.50;;;;;9.00;99336.00;;;;4935774;29;20078;-65
2023/11/18 02:47:07;;;;;;;10.57;8.30;;;;;9.10;99337.00;;;;4935180;29;20048;-65
2023/11/18 02:49:35;;;;;;;14.57;7.90;;;;;9.10;99338.00;;;;4935059;29;20577;-65
2023/11/18 02:52:02;;;;;;;11.70;8.13;;;;;9.10;99333.00;;;;4936187;29;20071;-65
2023/11/18 02:54:29;;;;;;;13.68;8.55;;;;;9.10;99329.00;;;;4935504;29;20039;-65
2023/11/18 02:56:56;;;;;;;13.15;8.23;;;;;9.10;99333.00;;;;4936048;29;20120;-65
2023/11/18 02:59:22;;;;;;;11.35;7.40;;;;;9.20;99336.00;;;;4934640;29;20259;-65
2023/11/18 03:01:54;;;;;;;12.05;8.60;;;;;9.10;99339.00;;;;4936119;29;20095;-65
2023/11/18 03:04:23;;;;;;;11.55;9.10;;;;;9.10;99335.00;;;;4918571;29;20102;-64
2023/11/18 03:06:50;;;;;;;11.90;8.52;;;;;9.10;99350.00;;;;4934462;29;20067;-64
2023/11/18 03:09:18;;;;;;;11.60;8.40;;;;;9.10;99354.00;;;;4934702;29;20508;-65
2023/11/18 03:11:45;;;;;;;9.35;7.15;;;;;9.10;99364.00;;;;4935920;29;20067;-65
2023/11/18 03:14:12;;;;;;;10.68;7.88;;;;;9.00;99366.00;;;;4918100;29;20052;-65
2023/11/18 03:16:39;;;;;;;12.95;7.32;;;;;8.90;99353.00;;;;4918907;29;20147;-65
2023/11/18 03:19:06;;;;;;;11.25;8.25;;;;;8.90;99360.00;;;;4935854;29;20044;-65
2023/11/18 03:21:33;;;;;;;12.27;8.00;;;;;8.90;99360.00;;;;4935634;29;20126;-65
2023/11/18 03:23:59;;;;;;;9.52;7.53;;;;;8.90;99357.00;;;;4933736;29;20051;-65
2023/11/18 03:26:26;;;;;;;12.90;8.68;;;;;8.90;99358.00;;;;4935796;29;20056;-63
2023/11/18 03:28:53;;;;;;;9.73;8.45;;;;;8.90;99357.00;;;;4918476;29;20519;-65
2023/11/18 03:31:19;;;;;;;12.98;9.10;;;;;8.90;99353.00;;;;4934220;29;20047;-65
2023/11/18 03:33:46;;;;;;;11.73;8.38;;;;;9.00;99340.00;;;;4933679;29;20054;-66
2023/11/18 03:36:13;;;;;;;13.63;8.10;;;;;9.00;99342.00;;;;4934021;29;20421;-64
2023/11/18 03:38:39;;;;;;;11.75;8.75;;;;;9.00;99341.00;;;;4935531;29;20514;-65
2023/11/18 03:41:08;;;;;;;10.80;7.97;;;;;9.00;99337.00;;;;4918644;29;20195;-65
2023/11/18 03:43:37;;;;;;;12.45;8.35;;;;;9.00;99341.00;;;;4934673;29;20058;-64
2023/11/18 03:46:04;;;;;;;10.40;8.38;;;;;9.10;99359.00;;;;4935264;29;20050;-63
2023/11/18 03:48:31;;;;;;;12.02;8.48;;;;;9.00;99350.00;;;;4935301;29;20058;-64
2023/11/18 03:50:58;;;;;;;11.02;8.07;;;;;9.00;99351.00;;;;4935738;29;20134;-63
2023/11/18 03:53:24;;;;;;;10.75;8.70;;;;;9.10;99355.00;;;;4933346;29;20062;-64
2023/11/18 03:55:51;;;;;;;10.63;8.18;;;;;9.10;99359.00;;;;4935164;29;20044;-62
2023/11/18 03:58:18;;;;;;;10.82;8.50;;;;;9.00;99360.00;;;;4934078;29;20047;-63
2023/11/18 04:00:45;;;;;;;12.93;7.22;;;;;9.00;99360.00;;;;4935104;29;20454;-63
2023/11/18 04:03:11;;;;;;;11.23;7.43;;;;;9.00;99361.00;;;;4935080;29;20059;-62
2023/11/18 04:05:38;;;;;;;12.02;8.57;;;;;9.00;99348.00;;;;4934341;29;20074;-63
2023/11/18 04:08:05;;;;;;;10.43;8.13;;;;;9.00;99347.00;;;;4933710;29;20047;-63
2023/11/18 04:10:31;;;;;;;12.18;7.35;;;;;9.00;99334.00;;;;4935014;29;20047;-63
2023/11/18 04:12:58;;;;;;;7.93;6.18;;;;;8.90;99337.00;;;;4934988;29;20408;-63
2023/11/18 04:15:26;;;;;;;9.32;6.30;;;;;8.90;99340.00;;;;4932931;29;20095;-62
2023/11/18 04:17:53;;;;;;;12.60;7.05;;;;;8.90;99342.00;;;;4933682;29;20047;-63
2023/11/18 04:20:20;;;;;;;12.20;7.03;;;;;8.90;99338.00;;;;4934815;29;20094;-62
2023/11/18 04:22:46;;;;;;;12.93;6.95;;;;;8.80;99342.00;;;;4934918;29;20398;-63
2023/11/18 04:25:13;;;;;;;8.55;5.78;;;;;8.70;99336.00;;;;4932978;29;20139;-63
2023/11/18 04:27:40;;;;;;;10.30;6.72;;;;;8.60;99331.00;;;;4933552;29;20050;-63
2023/11/18 04:30:12;;;;;;;10.48;6.45;;;;;8.70;99344.00;;;;4934912;29;20488;-62
2023/11/18 04:32:42;;;;;;;10.93;6.60;;;;;8.70;99346.00;;;;4933754;29;20063;-62
2023/11/18 04:35:09;;;;;;;9.85;6.63;;;;;8.70;99332.00;;;;4933002;29;20449;-62
2023/11/18 04:37:37;;;;;;;9.10;6.40;;;;;8.70;99329.00;;;;4935611;29;20095;-62
2023/11/18 04:40:06;;;;;;;10.23;6.28;;;;;8.70;99326.00;;;;4935595;29;20051;-62
2023/11/18 04:42:32;;;;;;;9.40;6.47;;;;;8.70;99333.00;;;;4934170;29;20047;-61
2023/11/18 04:44:59;;;;;;;8.40;5.70;;;;;8.70;99331.00;;;;4933864;29;20568;-64
2023/11/18 04:47:26;;;;;;;10.73;5.97;;;;;8.70;99331.00;;;;4937312;29;20050;-63
2023/11/18 04:49:53;;;;;;;11.73;6.55;;;;;8.70;99327.00;;;;4939570;29;20055;-63
2023/11/18 04:52:20;;;;;;;14.50;6.68;;;;;8.60;99326.00;;;;4947219;29;20047;-63
2023/11/18 04:54:50;;;;;;;9.10;6.03;;;;;8.50;99330.00;;;;4945777;29;20055;-62
2023/11/18 04:57:16;;;;;;;8.90;5.90;;;;;8.40;99338.00;;;;4947978;29;20051;-63
2023/11/18 04:59:43;;;;;;;10.48;6.68;;;;;8.40;99328.00;;;;4947619;29;20111;-63
2023/11/18 05:02:10;;;;;;;9.05;6.22;;;;;8.40;99328.00;;;;4953952;29;20124;-66
2023/11/18 05:04:37;;;;;;;11.10;6.32;;;;;8.40;99328.00;;;;4955141;28;20087;-66
2023/11/18 05:07:04;;;;;;;11.10;7.03;;;;;8.40;99322.00;;;;4960367;28;20055;-66
2023/11/18 05:09:31;;;;;;;11.50;7.28;;;;;8.40;99321.00;;;;4962389;28;20138;-67
2023/11/18 05:11:58;;;;;;;11.75;7.00;;;;;8.40;99345.00;;;;4963751;28;20050;-66
2023/11/18 05:14:26;;;;;;;12.27;7.05;;;;;8.40;99343.00;;;;4956644;28;20046;-63
2023/11/18 05:16:53;;;;;;;10.93;6.35;;;;;8.40;99339.00;;;;4963280;28;20118;-67
2023/11/18 05:19:20;;;;;;;11.85;7.18;;;;;8.40;99332.00;;;;4963442;28;20031;-66
2023/11/18 05:21:49;;;;;;;10.00;7.15;;;;;8.50;99323.00;;;;4961105;28;20043;-63
2023/11/18 05:24:16;;;;;;;11.25;6.95;;;;;8.50;99316.00;;;;4961761;28;20032;-61
2023/11/18 05:26:43;;;;;;;11.48;7.10;;;;;8.40;99311.00;;;;4962929;28;20059;-61
2023/11/18 05:29:09;;;;;;;18.42;8.13;;;;;8.40;99315.00;;;;4962657;28;20075;-61
2023/11/18 05:31:37;;;;;;;12.63;7.55;;;;;8.40;99318.00;;;;4962355;28;20063;-61
2023/11/18 05:34:04;;;;;;;10.55;7.05;;;;;8.50;99318.00;;;;4962186;28;20019;-61
2023/11/18 05:36:37;;;;;;;10.50;6.85;;;;;8.50;99307.00;;;;4962001;28;20059;-62
2023/11/18 05:39:05;;;;;;;12.48;7.10;;;;;8.50;99313.00;;;;4961241;28;20063;-62
2023/11/18 05:41:32;;;;;;;12.13;7.03;;;;;8.60;99306.00;;;;4961109;29;20048;-63
2023/11/18 05:43:58;;;;;;;12.13;6.53;;;;;8.60;99293.00;;;;4960803;28;20126;-63
2023/11/18 05:46:29;;;;;;;11.20;6.25;;;;;8.70;99295.00;;;;4960478;29;20051;-62
2023/11/18 05:48:57;;;;;;;11.25;6.90;;;;;8.70;99293.00;;;;4960641;29;20493;-64
2023/11/18 05:51:26;;;;;;;9.38;6.43;;;;;8.70;99306.00;;;;4959593;29;20055;-63
2023/11/18 05:53:53;;;;;;;10.80;7.00;;;;;8.70;99317.00;;;;4960008;29;20062;-62
2023/11/18 05:56:22;;;;;;;11.25;6.45;;;;;8.70;99304.00;;;;4960413;29;20079;-62
2023/11/18 05:58:49;;;;;;;9.90;5.85;;;;;8.60;99304.00;;;;4958652;28;20063;-64
2023/11/18 06:01:16;;;;;;;7.63;5.60;;;;;8.60;99294.00;;;;4959058;29;20055;-63
2023/11/18 06:03:43;;;;;;;10.68;5.60;;;;;8.70;99291.00;;;;4958045;29;20059;-63
2023/11/18 06:06:12;;;;;;;7.63;5.00;;;;;8.70;99291.00;;;;4953007;29;20043;-63
2023/11/18 06:08:42;;;;;;;10.05;5.53;;;;;8.80;99304.00;;;;4927426;29;20062;-63
2023/11/18 06:11:13;;;;;;;9.07;5.40;;;;;8.70;99288.00;;;;4936643;29;20043;-62
2023/11/18 06:13:50;;;;;;;8.60;5.55;;;;;8.80;99294.00;;;;4941014;29;20043;-64
2023/11/18 06:16:22;;;;;;;7.32;4.43;;;;;8.80;99296.00;;;;4937711;29;20126;-63
2023/11/18 06:18:51;;;;;;;9.70;6.22;;;;;8.90;99286.00;;;;4935870;29;20111;-64
2023/11/18 06:21:24;;;;;;;11.70;7.47;;;;;8.90;99287.00;;;;4935798;29;20052;-64
2023/11/18 06:23:51;;;;;;;9.88;6.40;;;;;8.90;99276.00;;;;4936434;29;20047;-64
2023/11/18 06:26:18;;;;;;;10.07;6.15;;;;;8.90;99276.00;;;;4935770;29;20501;-64
2023/11/18 06:28:45;;;;;;;12.25;6.95;;;;;8.80;99270.00;;;;4936851;29;20121;-64
2023/11/18 06:31:14;;;;;;;14.75;7.47;;;;;8.70;99260.00;;;;4936675;29;20548;-64
2023/11/18 06:33:45;;;;;;;16.13;10.02;;;;;8.70;99262.00;;;;4934732;29;20055;-64
2023/11/18 06:36:14;;;;;;;14.27;7.18;;;;;8.70;99278.00;;;;4936618;29;20044;-64
2023/11/18 06:38:41;;;;;;;15.23;9.25;;;;;8.60;99280.00;;;;4935201;29;20139;-64
2023/11/18 06:41:11;;;;;;;12.50;7.88;;;;;8.70;99285.00;;;;4935316;29;20052;-64
2023/11/18 06:44:17;;;;;;;10.77;7.10;;;;;8.80;99287.00;;;;4935904;29;20134;-63
2023/11/18 06:46:33;;;;;;;13.98;8.20;;;;;8.70;99280.00;;;;4935007;29;20155;-63
2023/11/18 06:49:03;;;;;;;9.77;6.10;;;;;8.50;99279.00;;;;4935245;29;20051;-64
2023/11/18 06:51:34;;;;;;;9.10;6.10;;;;;8.50;99285.00;;;;4936309;29;20127;-63
2023/11/18 06:54:08;;;;;;;10.13;5.82;;;;;8.60;99288.00;;;;4918890;29;20051;-64
2023/11/18 06:56:38;;;;;;;7.93;6.00;;;;;8.70;99284.00;;;;4934966;29;20075;-64
2023/11/18 06:59:06;;;;;;;9.10;5.38;;;;;8.50;99286.00;;;;4934851;29;20047;-64
2023/11/18 07:01:36;;;;;;;10.20;5.65;;;;;8.60;99287.00;;;;4934890;29;20406;-64
2023/11/18 07:04:03;;;;;;;8.43;5.93;;;;;8.70;99289.00;;;;4934512;29;20048;-64
2023/11/18 07:06:31;;;;;;;9.77;5.80;;;;;8.80;99286.00;;;;4934406;29;20054;-64
2023/11/18 07:09:00;;;;;;;8.30;4.63;;;;;8.70;99284.00;;;;4935892;29;20047;-64
2023/11/18 07:11:27;;;;;;;9.82;5.40;;;;;8.80;99293.00;;;;4935966;29;20055;-65
2023/11/18 07:13:57;;;;;;;9.18;5.13;;;;;8.70;99292.00;;;;4936480;29;20107;-64
2023/11/18 07:16:25;;;;;;;7.55;5.55;;;;;8.80;99289.00;;;;4935915;29;20135;-64
2023/11/18 07:18:52;;;;;;;8.80;6.18;;;;;8.80;99282.00;;;;4934665;29;20050;-64
2023/11/18 07:21:19;;;;;;;11.57;6.80;;;;;8.80;99264.00;;;;4935636;29;20647;-64
2023/11/18 07:23:46;;;;;;;10.65;6.53;;;;;8.80;99265.00;;;;4934959;29;20075;-64
2023/11/18 07:26:15;;;;;;;9.65;6.03;;;;;8.70;99271.00;;;;4934525;29;20066;-65
2023/11/18 07:28:43;;;;;;;11.95;6.38;;;;;8.70;99275.00;;;;4934930;29;20055;-65
2023/11/18 07:31:10;;;;;;;10.20;6.65;;;;;8.70;99278.00;;;;4934368;29;20468;-66
2023/11/18 07:33:37;;;;;;;9.40;6.20;;;;;8.80;99277.00;;;;4934700;29;20047;-66
2023/11/18 07:36:10;;;;;;;8.50;5.22;;;;;8.90;99293.00;;;;4935058;29;20091;-65
2023/11/18 07:38:37;;;;;;;9.15;5.70;;;;;8.90;99300.00;;;;4934468;29;20446;-66
2023/11/18 07:41:04;;;;;;;9.20;5.72;;;;;9.00;99306.00;;;;4935427;29;20051;-65
2023/11/18 07:43:30;;;;;;;9.77;5.35;;;;;9.00;99298.00;;;;4934824;29;20059;-65
2023/11/18 07:45:57;;;;;;;11.90;5.40;;;;;9.10;99292.00;;;;4935362;29;20043;-65
2023/11/18 07:48:24;;;;;;;9.13;5.65;;;;;9.10;99289.00;;;;4935288;29;20086;-65
2023/11/18 07:50:50;;;;;;;7.20;5.15;;;;;9.10;99308.00;;;;4933879;29;20051;-65
2023/11/18 07:53:17;;;;;;;9.43;6.07;;;;;9.10;99310.00;;;;4935357;29;20086;-65
2023/11/18 07:55:44;;;;;;;11.95;5.70;;;;;9.20;99311.00;;;;4934431;29;20050;-66
2023/11/18 07:58:12;;;;;;;9.35;5.40;;;;;9.30;99306.00;;;;4935120;29;20441;-66
2023/11/18 08:00:43;;;;;;;8.68;5.55;;;;;9.40;99296.00;;;;4935011;29;20568;-66
2023/11/18 08:03:13;;;;;;;13.20;6.15;;;;;9.40;99285.00;;;;4935376;29;20457;-66
2023/11/18 08:05:45;;;;;;;10.93;6.43;;;;;9.20;99274.00;;;;4934335;29;20489;-64
2023/11/18 08:08:12;;;;;;;10.80;5.57;;;;;9.30;99276.00;;;;4935011;29;20047;-65
2023/11/18 08:10:40;;;;;;;13.23;5.95;;;;;9.40;99274.00;;;;4934952;29;20114;-65
2023/11/18 08:13:08;;;;;;;10.00;6.50;;;;;9.40;99269.00;;;;4933577;29;20079;-65
2023/11/18 08:15:39;;;;;;;12.23;5.35;;;;;9.40;99270.00;;;;4932941;29;20044;-65
2023/11/18 08:18:06;;;;;;;10.13;5.65;;;;;9.50;99270.00;;;;4934925;29;20083;-65
2023/11/18 08:20:33;;;;;;;12.85;6.65;;;;;9.60;99277.00;;;;4933521;29;20425;-65
2023/11/18 08:23:00;;;;;;;11.27;5.00;;;;;9.60;99278.00;;;;4934773;29;20086;-66
2023/11/18 08:25:26;;;;;;;8.90;4.88;;;;;9.70;99279.00;;;;4932899;29;20051;-66
2023/11/18 08:27:53;;;;;;;9.95;4.63;;;;;9.80;99272.00;;;;4934821;29;20090;-64
2023/11/18 08:30:20;;;;;;;7.28;4.40;;;;;9.80;99263.00;;;;4933480;29;20044;-64
2023/11/18 08:32:47;;;;;;;12.40;7.20;;;;;9.90;99265.00;;;;4934720;29;20048;-63
2023/11/18 08:35:15;;;;;;;29.48;17.75;;;;;9.90;99250.00;;;;4934189;29;20054;-65
2023/11/18 08:37:43;;;;;;;46.45;28.17;;;;;10.00;99252.00;;;;4934907;29;20413;-64
2023/11/18 08:40:21;;;;;;;9.63;4.30;;;;;10.10;99251.00;;;;4936417;29;20048;-64
2023/11/18 08:42:50;;;;;;;5.25;3.00;;;;;10.20;99256.00;;;;4938733;29;20044;-65
2023/11/18 08:45:19;;;;;;;7.97;3.55;;;;;10.20;99256.00;;;;4936733;29;20118;-64
2023/11/18 08:47:46;;;;;;;8.27;4.50;;;;;10.30;99244.00;;;;4937201;29;20428;-63
2023/11/18 08:50:14;;;;;;;13.18;6.43;;;;;10.30;99251.00;;;;4937275;29;20051;-62
2023/11/18 08:52:43;;;;;;;13.25;6.22;;;;;10.30;99252.00;;;;4921414;29;20071;-62
2023/11/18 08:55:21;;;;;;;6.20;4.32;;;;;10.20;99247.00;;;;4937421;29;20092;-66
2023/11/18 08:57:58;;;;;;;7.30;3.97;;;;;10.20;99244.00;;;;4938942;29;20043;-62
2023/11/18 09:03:17;;;;;;;4.28;2.72;;;;;10.50;99242.00;;;;4938457;29;20677;-65
2023/11/18 09:05:58;;;;;;;5.95;2.90;;;;;10.60;99263.00;;;;4936448;29;20079;-65
2023/11/18 09:08:54;;;;;;;5.57;2.40;;;;;10.60;99268.00;;;;4938189;29;20401;-65
2023/11/18 09:11:23;;;;;;;5.13;2.50;;;;;10.60;99269.00;;;;4938098;29;20428;-65
2023/11/18 09:13:54;;;;;;;3.80;2.58;;;;;10.60;99265.00;;;;4936346;29;20048;-64
2023/11/18 09:16:29;;;;;;;4.93;2.60;;;;;10.60;99266.00;;;;4938181;29;20047;-65
2023/11/18 09:18:58;;;;;;;5.22;2.30;;;;;10.60;99279.00;;;;4938087;29;20111;-65
2023/11/18 09:21:29;;;;;;;4.72;2.40;;;;;10.60;99277.00;;;;4936634;29;20086;-65
2023/11/18 09:23:56;;;;;;;6.43;2.80;;;;;10.60;99273.00;;;;4937146;29;20126;-65
2023/11/18 09:26:25;;;;;;;4.40;1.90;;;;;10.70;99267.00;;;;4937868;29;20071;-65
2023/11/18 09:28:52;;;;;;;4.10;2.47;;;;;10.70;99273.00;;;;4937832;29;20054;-64
2023/11/18 09:31:21;;;;;;;5.85;2.67;;;;;10.80;99284.00;;;;4937816;29;20075;-64
2023/11/18 09:33:51;;;;;;;9.93;4.13;;;;;10.90;99288.00;;;;4937261;29;20055;-64
2023/11/18 09:36:21;;;;;;;7.60;3.22;;;;;10.80;99291.00;;;;4936274;29;20118;-64
2023/11/18 09:38:47;;;;;;;6.72;2.88;;;;;10.80;99295.00;;;;4936375;29;20052;-64
2023/11/18 09:41:15;;;;;;;8.02;3.20;;;;;10.90;99298.00;;;;4936231;29;20071;-63
2023/11/18 09:43:47;;;;;;;8.05;3.67;;;;;10.80;99296.00;;;;4936926;29;20059;-64
2023/11/18 09:46:17;;;;;;;5.82;3.35;;;;;10.70;99299.00;;;;4936349;29;20052;-64
2023/11/18 09:49:15;;;;;;;7.10;2.70;;;;;10.70;99289.00;;;;4936174;29;20056;-64
2023/11/18 09:51:47;;;;;;;10.85;2.60;;;;;10.70;99289.00;;;;4935374;29;20521;-62
2023/11/18 09:54:46;;;;;;;5.15;2.58;;;;;10.90;99289.00;;;;4936756;29;20079;-62
2023/11/18 09:57:30;;;;;;;3.28;2.78;;;;;11.10;99289.00;;;;4936645;29;20055;-62
2023/11/18 10:00:10;;;;;;;7.03;2.65;;;;;11.10;99281.00;;;;4935853;29;20154;-62
2023/11/18 10:02:40;;;;;;;5.70;3.30;;;;;11.10;99285.00;;;;4937198;29;20076;-62
2023/11/18 10:05:12;;;;;;;8.52;3.65;;;;;11.20;99284.00;;;;4937013;29;20043;-61
2023/11/18 10:07:41;;;;;;;7.30;4.97;;;;;11.20;99281.00;;;;4937012;29;20390;-61
2023/11/18 10:10:14;;;;;;;8.95;4.60;;;;;11.20;99288.00;;;;4937123;29;20048;-61
2023/11/18 10:12:44;;;;;;;7.47;3.10;;;;;11.20;99284.00;;;;4937263;29;20047;-62
2023/11/18 10:15:17;;;;;;;6.55;2.40;;;;;11.30;99281.00;;;;4936245;29;20087;-62
2023/11/18 10:18:06;;;;;;;6.10;2.20;;;;;11.30;99293.00;;;;4936918;29;20051;-61
2023/11/18 10:20:46;;;;;;;5.43;2.95;;;;;11.30;99283.00;;;;4936898;29;20054;-62
2023/11/18 10:23:20;;;;;;;4.13;2.50;;;;;11.10;99291.00;;;;4936799;29;20058;-62
2023/11/18 10:25:54;;;;;;;5.30;3.03;;;;;11.10;99292.00;;;;4935455;29;20051;-61
2023/11/18 10:28:22;;;;;;;3.05;2.30;;;;;11.20;99291.00;;;;4937052;29;20067;-63
2023/11/18 10:30:50;;;;;;;4.60;2.55;;;;;11.20;99292.00;;;;4936743;29;20086;-62
2023/11/18 10:33:17;;;;;;;7.28;2.28;;;;;11.20;99275.00;;;;4935445;29;20075;-62
2023/11/18 10:35:55;;;;;;;4.00;1.85;;;;;11.10;99270.00;;;;4936174;29;20099;-64
2023/11/18 10:38:25;;;;;;;3.95;2.00;;;;;11.00;99280.00;;;;4935338;29;20115;-65
2023/11/18 10:40:55;;;;;;;3.80;2.20;;;;;10.90;99277.00;;;;4935423;29;20051;-64
2023/11/18 10:43:24;;;;;;;11.02;4.47;;;;;10.90;99273.00;;;;4936381;29;20054;-65
2023/11/18 10:46:14;;;;;;;6.15;3.05;;;;;10.90;99263.00;;;;4935135;29;20046;-64
2023/11/18 10:48:49;;;;;;;4.93;2.40;;;;;10.90;99266.00;;;;4935386;29;20043;-63
2023/11/18 10:51:23;;;;;;;5.22;2.30;;;;;10.90;99250.00;;;;4936199;29;20058;-65
2023/11/18 10:53:58;;;;;;;5.78;2.28;;;;;11.00;99244.00;;;;4934610;29;20067;-65
2023/11/18 10:56:28;;;;;;;5.18;2.70;;;;;11.10;99242.00;;;;4936196;29;20106;-64
2023/11/18 10:58:59;;;;;;;8.52;3.17;;;;;11.00;99235.00;;;;4936262;29;20044;-65
2023/11/18 11:01:33;;;;;;;17.58;8.02;;;;;10.80;99233.00;;;;4934918;29;20051;-65
2023/11/18 11:04:04;;;;;;;;;;;;;10.70;99216.00;;;;4933579;29;20469;-64
2023/11/18 11:06:33;;;;;;;3.17;1.63;;;;;10.60;99215.00;;;;4935824;29;19957;-64
2023/11/18 11:08:59;;;;;;;4.53;1.90;;;;;10.60;99210.00;;;;4936018;29;20051;-63
2023/11/18 11:11:37;;;;;;;2.85;1.92;;;;;10.60;99200.00;;;;4934630;29;20059;-65
2023/11/18 11:14:05;;;;;;;3.35;2.15;;;;;10.50;99202.00;;;;4934006;29;20067;-64
2023/11/18 11:16:44;;;;;;;5.07;2.17;;;;;10.50;99199.00;;;;4935717;29;20044;-64
2023/11/18 11:19:37;;;;;;;6.22;1.95;;;;;10.50;99182.00;;;;4935750;29;20461;-64
2023/11/18 11:22:15;;;;;;;3.10;2.00;;;;;10.50;99186.00;;;;4934552;29;20454;-65
2023/11/18 11:25:02;;;;;;;3.83;1.92;;;;;10.60;99187.00;;;;4933907;29;20047;-64
2023/11/18 11:27:39;;;;;;;5.32;1.92;;;;;10.60;99191.00;;;;4934568;29;20123;-65
2023/11/18 11:30:20;;;;;;;6.03;2.20;;;;;10.50;99181.00;;;;4935753;29;20083;-63
2023/11/18 11:33:27;;;;;;;5.32;1.95;;;;;10.50;99182.00;;;;4935762;29;20449;-64
2023/11/18 11:35:59;;;;;;;3.90;2.50;;;;;10.50;99185.00;;;;4934164;29;20055;-64
2023/11/18 11:38:28;;;;;;;5.38;2.05;;;;;10.60;99177.00;;;;4934226;29;20425;-65
2023/11/18 11:40:57;;;;;;;6.47;1.85;;;;;10.60;99182.00;;;;4935668;29;20462;-64
2023/11/18 11:43:27;;;;;;;4.00;1.98;;;;;10.60;99178.00;;;;4934930;29;20052;-62
2023/11/18 11:45:57;;;;;;;4.40;2.10;;;;;10.50;99179.00;;;;4934293;29;20323;-64
2023/11/18 11:48:27;;;;;;;4.60;2.47;;;;;10.60;99177.00;;;;4935225;29;20054;-64
2023/11/18 11:51:26;;;;;;;6.45;2.40;;;;;10.60;99171.00;;;;4935458;29;20451;-63
2023/11/18 11:54:15;;;;;;;3.60;2.00;;;;;10.60;99165.00;;;;4933450;29;20081;-64
2023/11/18 11:56:47;;;;;;;3.80;2.25;;;;;10.60;99167.00;;;;4935051;29;20094;-64
2023/11/18 11:59:17;;;;;;;5.25;2.88;;;;;10.70;99170.00;;;;4935143;29;20072;-64
2023/11/18 12:01:46;;;;;;;6.50;2.45;;;;;10.60;99161.00;;;;4933715;29;20052;-64
2023/11/18 12:04:28;;;;;;;4.38;1.75;;;;;10.70;99155.00;;;;4933351;29;20075;-64
2023/11/18 12:06:56;;;;;;;5.30;2.20;;;;;10.70;99156.00;;;;4934555;29;20043;-63
2023/11/18 12:09:38;;;;;;;5.38;2.20;;;;;10.70;99153.00;;;;4935029;29;20056;-64
2023/11/18 12:12:12;;;;;;;5.75;1.83;;;;;10.70;99151.00;;;;4935039;29;20051;-64
2023/11/18 12:15:12;;;;;;;;;;;;;10.60;99146.00;;;;4934516;29;20083;-64
2023/11/18 12:17:58;;;;;;;5.10;2.28;;;;;10.50;99130.00;;;;4934753;29;19923;-63
2023/11/18 12:20:47;;;;;;;4.88;2.60;;;;;10.50;99132.00;;;;4917884;29;20052;-63
2023/11/18 12:23:14;;;;;;;5.40;2.95;;;;;10.50;99128.00;;;;4934879;29;20078;-62
2023/11/18 12:25:42;;;;;;;4.38;2.58;;;;;10.60;99112.00;;;;4933136;29;20043;-63
2023/11/18 12:28:16;;;;;;;4.20;2.03;;;;;10.60;99111.00;;;;4934696;29;20386;-62
2023/11/18 12:30:55;;;;;;;5.55;2.50;;;;;10.60;99114.00;;;;4933578;29;20066;-62
2023/11/18 12:33:23;;;;;;;5.18;2.38;;;;;10.70;99101.00;;;;4934467;29;20131;-63
2023/11/18 12:35:50;;;;;;;3.70;2.30;;;;;10.70;99091.00;;;;4933394;29;20083;-62